Time;durP1;ratioP1;P1;durP2;ratioP2;P2;SDS_P1;SDS_P2;PMS_P1;PMS_P2;Temp;Humidity;BMP_temperature;BMP_pressure;BME280_temperature;BME280_humidity;BME280_pressure;Samples;Min_cycle;Max_cycle;Signal;HPM_P1;HPM_P2
2023/12/18 00:02:01;;;;;;;;;;;;;;;16.04;45.37;102648.84;4987176;28;1000;-50
2023/12/18 00:04:27;;;;;;;;;;;;;;;16.24;45.13;102643.19;4978442;28;1026;-48
2023/12/18 00:06:52;;;;;;;;;;;;;;;17.38;42.69;102639.13;4983477;28;1152;-44
2023/12/18 00:09:19;;;;;;;;;;;;;;;16.37;44.74;102633.97;4978609;28;1906;-49
2023/12/18 00:11:44;;;;;;;;;;;;;;;15.88;45.83;102638.44;4989600;28;1049;-47
2023/12/18 00:14:10;;;;;;;;;;;;;;;16.89;43.62;102638.31;4980559;28;1072;-47
2023/12/18 00:16:35;;;;;;;;;;;;;;;17.26;42.49;102632.72;4978182;28;1060;-46
2023/12/18 00:19:01;;;;;;;;;;;;;;;16.34;44.96;102639.06;4981984;28;1136;-44
2023/12/18 00:21:26;;;;;;;;;;;;;;;15.90;45.82;102636.31;4997986;28;1111;-45
2023/12/18 00:23:52;;;;;;;;;;;;;;;15.71;46.34;102638.09;4993635;28;1126;-47
2023/12/18 00:26:18;;;;;;;;;;;;;;;17.22;42.98;102628.75;4977772;28;1024;-48
2023/12/18 00:28:43;;;;;;;;;;;;;;;17.06;43.04;102630.25;4978658;28;1089;-47
2023/12/18 00:31:09;;;;;;;;;;;;;;;16.22;45.04;102634.31;4978339;28;1902;-46
2023/12/18 00:33:34;;;;;;;;;;;;;;;15.90;46.08;102636.31;4994858;28;1127;-49
2023/12/18 00:36:00;;;;;;;;;;;;;;;16.74;44.21;102633.97;4987515;28;1120;-45
2023/12/18 00:38:25;;;;;;;;;;;;;;;17.15;42.97;102633.53;4981219;28;1040;-50
2023/12/18 00:40:51;;;;;;;;;;;;;;;16.24;44.95;102632.22;4997031;28;970;-47
2023/12/18 00:43:16;;;;;;;;;;;;;;;15.79;46.06;102637.00;4996488;28;1198;-48
2023/12/18 00:45:42;;;;;;;;;;;;;;;16.20;45.42;102632.88;4988054;28;1188;-50
2023/12/18 00:48:07;;;;;;;;;;;;;;;17.49;42.39;102620.13;4993148;28;1072;-49
2023/12/18 00:50:33;;;;;;;;;;;;;;;16.50;44.35;102597.28;4988253;28;1898;-45
2023/12/18 00:52:58;;;;;;;;;;;;;;;15.87;45.86;102590.94;4990177;28;1229;-45
2023/12/18 00:55:24;;;;;;;;;;;;;;;15.71;46.50;102591.47;4978678;28;1084;-45
2023/12/18 00:57:51;;;;;;;;;;;;;;;17.23;42.71;102591.97;4992689;28;1040;-45
2023/12/18 01:00:17;;;;;;;;;;;;;;;16.90;43.43;102599.59;4988343;28;1056;-46
2023/12/18 01:02:42;;;;;;;;;;;;;;;16.03;45.61;102592.31;4977507;28;1044;-47
2023/12/18 01:05:08;;;;;;;;;;;;;;;15.79;46.19;102587.63;4985917;28;882;-47
2023/12/18 01:07:34;;;;;;;;;;;;;;;16.19;45.41;102590.03;4994589;28;1055;-48
2023/12/18 01:10:00;;;;;;;;;;;;;;;17.49;42.30;102581.63;4986607;28;1898;-50
2023/12/18 01:12:26;;;;;;;;;;;;;;;16.47;44.29;102577.72;4981099;28;1099;-50
2023/12/18 01:14:51;;;;;;;;;;;;;;;15.96;45.41;102577.78;4977675;28;1191;-46
2023/12/18 01:17:17;;;;;;;;;;;;;;;16.35;44.88;102570.19;4992457;28;1071;-47
2023/12/18 01:19:42;;;;;;;;;;;;;;;17.31;42.65;102571.56;4987938;28;1069;-50
2023/12/18 01:22:08;;;;;;;;;;;;;;;16.36;44.83;102569.16;4979644;28;1156;-50
2023/12/18 01:24:33;;;;;;;;;;;;;;;15.87;45.80;102576.41;4988393;28;1140;-46
2023/12/18 01:26:59;;;;;;;;;;;;;;;16.25;45.17;102567.16;4977594;28;1016;-45
2023/12/18 01:29:24;;;;;;;;;;;;;;;17.50;41.94;102566.81;4985247;28;1879;-48
2023/12/18 01:31:50;;;;;;;;;;;;;;;16.61;44.22;102557.25;4982074;28;1243;-49
2023/12/18 01:34:15;;;;;;;;;;;;;;;16.02;45.33;102559.56;4986163;28;1017;-46
2023/12/18 01:36:41;;;;;;;;;;;;;;;15.84;45.90;102557.66;4994185;28;1067;-49
2023/12/18 01:39:06;;;;;;;;;;;;;;;17.33;42.66;102558.41;4977381;28;1026;-47
2023/12/18 01:41:32;;;;;;;;;;;;;;;16.82;43.39;102563.34;4989727;28;1239;-46
2023/12/18 01:43:57;;;;;;;;;;;;;;;16.07;45.29;102562.47;4976975;28;1221;-49
2023/12/18 01:46:23;;;;;;;;;;;;;;;15.81;46.16;102563.56;4992272;28;1041;-47
2023/12/18 01:48:49;;;;;;;;;;;;;;;17.28;42.85;102559.13;4988150;28;1152;-46
2023/12/18 01:51:14;;;;;;;;;;;;;;;16.86;43.32;102557.13;4991301;28;1987;-49
2023/12/18 01:53:42;;;;;;;;;;;;;;;16.06;45.28;102556.16;4988238;28;902;-46
2023/12/18 01:56:07;;;;;;;;;;;;;;;15.78;46.10;102564.00;4989834;28;1429;-46
2023/12/18 01:58:33;;;;;;;;;;;;;;;16.14;45.21;102567.91;4976985;28;1167;-49
2023/12/18 02:00:59;;;;;;;;;;;;;;;17.52;42.09;102570.16;4978959;28;1140;-43
2023/12/18 02:03:24;;;;;;;;;;;;;;;16.55;44.20;102575.50;4988124;28;1098;-48
2023/12/18 02:05:50;;;;;;;;;;;;;;;15.96;45.67;102574.19;4976767;28;1084;-49
2023/12/18 02:08:15;;;;;;;;;;;;;;;15.91;45.61;102567.50;5000148;28;1120;-49
2023/12/18 02:10:42;;;;;;;;;;;;;;;17.40;42.29;102572.88;4994268;28;2001;-45
2023/12/18 02:13:07;;;;;;;;;;;;;;;16.77;43.46;102559.38;4976667;28;1064;-48
2023/12/18 02:15:33;;;;;;;;;;;;;;;16.16;45.09;102554.78;4990192;28;1044;-49
2023/12/18 02:17:58;;;;;;;;;;;;;;;15.77;45.75;102557.69;4991808;28;849;-47
2023/12/18 02:20:24;;;;;;;;;;;;;;;16.49;44.57;102550.84;4978087;28;1100;-48
2023/12/18 02:22:50;;;;;;;;;;;;;;;17.64;41.74;102546.25;4996013;28;1032;-46
2023/12/18 02:25:16;;;;;;;;;;;;;;;16.63;44.03;102546.03;4981832;28;1159;-45
2023/12/18 02:27:41;;;;;;;;;;;;;;;16.04;45.12;102541.81;4984794;28;1195;-49
2023/12/18 02:30:07;;;;;;;;;;;;;;;15.77;46.14;102546.72;4981482;28;1989;-50
2023/12/18 02:32:35;;;;;;;;;;;;;;;17.29;42.56;102541.53;4988047;28;1123;-46
2023/12/18 02:35:00;;;;;;;;;;;;;;;16.57;43.84;102547.78;4989324;28;1108;-49
2023/12/18 02:37:27;;;;;;;;;;;;;;;15.91;45.44;102536.47;4984989;28;1148;-50
2023/12/18 02:39:53;;;;;;;;;;;;;;;16.29;44.82;102545.59;4981048;28;1218;-49
2023/12/18 02:42:18;;;;;;;;;;;;;;;17.41;42.22;102536.91;4980052;28;996;-49
2023/12/18 02:44:43;;;;;;;;;;;;;;;16.42;44.55;102520.72;4981136;28;1067;-50
2023/12/18 02:47:09;;;;;;;;;;;;;;;15.90;45.44;102524.66;4980104;28;1141;-47
2023/12/18 02:49:34;;;;;;;;;;;;;;;16.14;45.23;102532.22;4982029;28;1904;-49
2023/12/18 02:52:00;;;;;;;;;;;;;;;17.45;42.19;102524.34;4991165;28;1114;-50
2023/12/18 02:54:25;;;;;;;;;;;;;;;16.47;44.37;102528.28;4981110;28;1031;-49
2023/12/18 02:56:51;;;;;;;;;;;;;;;15.90;45.33;102512.84;4991375;28;1032;-50
2023/12/18 02:59:16;;;;;;;;;;;;;;;16.29;44.68;102516.22;4979930;28;1119;-50
2023/12/18 03:01:42;;;;;;;;;;;;;;;17.57;41.87;102510.63;4987417;28;1044;-47
2023/12/18 03:04:07;;;;;;;;;;;;;;;16.60;44.01;102504.22;4985355;28;1164;-48
2023/12/18 03:06:33;;;;;;;;;;;;;;;15.98;45.22;102495.28;4979745;28;865;-46
2023/12/18 03:08:58;;;;;;;;;;;;;;;15.77;45.99;102491.84;4979539;28;1353;-47
2023/12/18 03:11:24;;;;;;;;;;;;;;;17.12;42.74;102497.38;4979783;28;1983;-47
2023/12/18 03:13:49;;;;;;;;;;;;;;;16.94;42.97;102495.53;4979678;28;1152;-49
2023/12/18 03:16:15;;;;;;;;;;;;;;;16.13;45.11;102489.38;4979702;28;1060;-48
2023/12/18 03:18:40;;;;;;;;;;;;;;;15.75;45.93;102488.47;4979419;28;906;-49
2023/12/18 03:21:10;;;;;;;;;;;;;;;16.07;45.39;102485.66;4979381;28;1103;-48
2023/12/18 03:23:35;;;;;;;;;;;;;;;17.45;42.01;102493.28;4979479;28;1053;-48
2023/12/18 03:26:01;;;;;;;;;;;;;;;16.63;43.81;102494.66;4987078;28;1136;-49
2023/12/18 03:28:26;;;;;;;;;;;;;;;15.99;45.33;102488.69;4985179;28;1076;-48
2023/12/18 03:30:52;;;;;;;;;;;;;;;15.67;45.71;102486.88;4986441;28;1910;-47
2023/12/18 03:33:18;;;;;;;;;;;;;;;17.08;43.05;102499.78;4984194;28;1147;-50
2023/12/18 03:35:44;;;;;;;;;;;;;;;17.05;42.75;102502.16;4979426;28;1135;-48
2023/12/18 03:38:09;;;;;;;;;;;;;;;16.25;44.70;102504.03;4992062;28;1113;-49
2023/12/18 03:40:35;;;;;;;;;;;;;;;15.77;45.65;102501.97;4978967;28;1124;-48
2023/12/18 03:43:00;;;;;;;;;;;;;;;16.98;43.09;102512.41;4992098;28;1030;-50
2023/12/18 03:45:26;;;;;;;;;;;;;;;17.29;42.42;102505.78;4994149;28;1084;-47
2023/12/18 03:47:52;;;;;;;;;;;;;;;16.30;44.51;102515.16;4978924;28;1073;-47
2023/12/18 03:50:18;;;;;;;;;;;;;;;15.87;45.38;102516.88;4979367;28;1991;-48
2023/12/18 03:52:43;;;;;;;;;;;;;;;16.70;43.80;102520.13;4978377;28;1116;-45
2023/12/18 03:55:09;;;;;;;;;;;;;;;16.96;42.83;102514.53;4978343;28;916;-47
2023/12/18 03:57:34;;;;;;;;;;;;;;;16.10;45.03;102517.28;4992663;28;1227;-45
2023/12/18 04:00:00;;;;;;;;;;;;;;;15.69;45.80;102505.84;4978717;28;1139;-49
2023/12/18 04:02:25;;;;;;;;;;;;;;;16.93;43.29;102505.69;4978835;28;1421;-48
2023/12/18 04:04:52;;;;;;;;;;;;;;;17.12;42.67;102504.81;4978646;28;1056;-49
2023/12/18 04:07:18;;;;;;;;;;;;;;;16.25;44.58;102504.03;4978959;28;890;-46
2023/12/18 04:09:44;;;;;;;;;;;;;;;15.81;45.59;102495.00;4978412;28;1906;-47
2023/12/18 04:12:09;;;;;;;;;;;;;;;16.92;43.28;102497.69;4978711;28;1076;-47
2023/12/18 04:14:35;;;;;;;;;;;;;;;16.92;42.93;102494.94;4978381;28;1013;-49
2023/12/18 04:17:00;;;;;;;;;;;;;;;16.22;44.73;102494.34;4978282;28;1064;-47
2023/12/18 04:19:26;;;;;;;;;;;;;;;15.82;45.69;102494.78;4978266;28;919;-49
2023/12/18 04:21:51;;;;;;;;;;;;;;;17.25;42.37;102497.19;4978603;28;1120;-46
2023/12/18 04:24:16;;;;;;;;;;;;;;;16.96;42.93;102487.91;4993065;28;1068;-46
2023/12/18 04:26:43;;;;;;;;;;;;;;;16.16;44.93;102499.91;4991053;28;1164;-46
2023/12/18 04:29:08;;;;;;;;;;;;;;;15.79;45.64;102492.47;4978749;28;1176;-49
2023/12/18 04:31:34;;;;;;;;;;;;;;;16.49;44.23;102493.19;4978939;28;1910;-50
2023/12/18 04:33:59;;;;;;;;;;;;;;;17.64;41.49;102498.66;4979049;28;1222;-45
2023/12/18 04:36:25;;;;;;;;;;;;;;;16.64;43.52;102499.09;4978370;28;1041;-51
2023/12/18 04:38:50;;;;;;;;;;;;;;;15.99;45.31;102492.28;4977490;28;1104;-53
2023/12/18 04:41:25;;;;;;;;;;;;;;;15.69;45.83;102490.22;4985349;28;1361;-45
2023/12/18 04:43:50;;;;;;;;;;;;;;;16.65;43.86;102499.94;4972140;28;1259;-51
2023/12/18 04:46:16;;;;;;;;;;;;;;;17.09;42.70;102501.44;4978254;28;1034;-49
2023/12/18 04:48:41;;;;;;;;;;;;;;;16.16;44.66;102489.78;4978497;28;1160;-47
2023/12/18 04:51:07;;;;;;;;;;;;;;;15.79;45.64;102483.38;4977889;28;1938;-45
2023/12/18 04:53:33;;;;;;;;;;;;;;;17.07;43.13;102494.53;4977355;28;1160;-47
2023/12/18 04:55:59;;;;;;;;;;;;;;;17.02;42.71;102489.72;4977915;28;1112;-49
2023/12/18 04:58:24;;;;;;;;;;;;;;;16.17;44.75;102479.63;4979148;28;1065;-45
2023/12/18 05:00:50;;;;;;;;;;;;;;;15.82;45.56;102488.44;4996977;28;1158;-46
2023/12/18 05:03:15;;;;;;;;;;;;;;;16.94;43.25;102501.03;4982830;28;1091;-46
2023/12/18 05:05:41;;;;;;;;;;;;;;;17.34;42.12;102483.09;4984473;28;1140;-45
2023/12/18 05:08:06;;;;;;;;;;;;;;;16.36;44.43;102485.97;4990249;28;1081;-44
2023/12/18 05:10:32;;;;;;;;;;;;;;;15.86;45.53;102484.19;4985354;28;1923;-45
2023/12/18 05:12:57;;;;;;;;;;;;;;;15.64;46.33;102479.09;4984202;28;1544;-51
2023/12/18 05:15:24;;;;;;;;;;;;;;;17.13;42.90;102481.75;4969241;28;1391;-50
2023/12/18 05:17:49;;;;;;;;;;;;;;;16.85;43.40;102474.94;4993075;28;1091;-45
2023/12/18 05:20:15;;;;;;;;;;;;;;;16.02;45.14;102486.34;4983445;28;1047;-46
2023/12/18 05:22:40;;;;;;;;;;;;;;;15.67;45.91;102481.41;4988171;28;2534;-45
2023/12/18 05:25:06;;;;;;;;;;;;;;;16.63;43.96;102480.94;4986683;28;1220;-45
2023/12/18 05:27:32;;;;;;;;;;;;;;;17.84;41.13;102482.63;4983996;28;1097;-45
2023/12/18 05:29:57;;;;;;;;;;;;;;;16.60;43.87;102487.72;4991725;28;1967;-47
2023/12/18 05:32:23;;;;;;;;;;;;;;;17.41;42.14;102490.13;4996517;28;1021;-45
2023/12/18 05:34:49;;;;;;;;;;;;;;;17.23;42.13;102482.00;4995643;28;1095;-47
2023/12/18 05:37:14;;;;;;;;;;;;;;;16.96;43.25;102479.66;4989635;28;1083;-45
2023/12/18 05:39:40;;;;;;;;;;;;;;;18.34;40.24;102477.66;4989842;28;1069;-48
2023/12/18 05:42:05;;;;;;;;;;;;;;;17.09;42.61;102471.19;4978860;28;1001;-44
2023/12/18 05:44:31;;;;;;;;;;;;;;;16.79;43.52;102471.22;4995770;28;1032;-46
2023/12/18 05:46:56;;;;;;;;;;;;;;;17.61;41.50;102477.97;4983117;28;1079;-48
2023/12/18 05:49:22;;;;;;;;;;;;;;;16.64;43.63;102474.38;4983698;28;2046;-47
2023/12/18 05:51:47;;;;;;;;;;;;;;;18.23;40.25;102482.97;4989587;28;2491;-49
2023/12/18 05:54:13;;;;;;;;;;;;;;;17.30;42.19;102466.22;4988700;28;1049;-51
2023/12/18 05:56:38;;;;;;;;;;;;;;;17.15;42.82;102460.34;4983520;28;1227;-50
2023/12/18 05:59:04;;;;;;;;;;;;;;;18.10;40.41;102470.31;4996187;28;1088;-45
2023/12/18 06:01:29;;;;;;;;;;;;;;;17.49;42.02;102463.34;4982483;28;1088;-45
2023/12/18 06:03:55;;;;;;;;;;;;;;;18.84;39.25;102465.13;4982327;28;1122;-46
2023/12/18 06:06:20;;;;;;;;;;;;;;;17.90;41.15;102459.63;4992218;28;1030;-46
2023/12/18 06:08:46;;;;;;;;;;;;;;;17.17;42.74;102452.72;4984122;28;1017;-47
2023/12/18 06:11:11;;;;;;;;;;;;;;;18.08;40.98;102455.09;4976835;28;1980;-45
2023/12/18 06:13:39;;;;;;;;;;;;;;;17.20;42.63;102444.00;4977174;28;1151;-47
2023/12/18 06:16:04;;;;;;;;;;;;;;;16.81;43.57;102446.25;4991043;28;1101;-47
2023/12/18 06:18:30;;;;;;;;;;;;;;;18.45;40.11;102444.56;4990426;28;1221;-48
2023/12/18 06:20:55;;;;;;;;;;;;;;;17.11;42.77;102446.25;4987316;28;993;-45
2023/12/18 06:23:21;;;;;;;;;;;;;;;18.00;41.27;102453.53;4987165;28;1146;-47
2023/12/18 06:25:46;;;;;;;;;;;;;;;17.88;41.25;102455.44;4986915;28;1219;-46
2023/12/18 06:28:12;;;;;;;;;;;;;;;17.07;43.11;102456.88;4987714;28;1200;-43
2023/12/18 06:30:37;;;;;;;;;;;;;;;18.71;39.69;102447.81;4982144;28;1980;-45
2023/12/18 06:33:03;;;;;;;;;;;;;;;17.52;42.12;102446.41;4992865;28;1104;-48
2023/12/18 06:35:29;;;;;;;;;;;;;;;17.05;42.81;102450.75;4997930;28;1127;-48
2023/12/18 06:37:54;;;;;;;;;;;;;;;18.08;41.17;102439.41;4987625;28;1204;-44
2023/12/18 06:40:20;;;;;;;;;;;;;;;17.22;42.82;102428.06;4998981;28;1152;-42
2023/12/18 06:42:45;;;;;;;;;;;;;;;17.55;42.07;102421.16;4991000;28;1135;-46
2023/12/18 06:45:11;;;;;;;;;;;;;;;18.07;40.97;102415.72;4999275;28;1056;-45
2023/12/18 06:47:36;;;;;;;;;;;;;;;17.04;42.80;102429.88;4999467;28;1115;-48
2023/12/18 06:50:03;;;;;;;;;;;;;;;18.63;39.92;102423.41;4999038;28;1906;-44
2023/12/18 06:52:28;;;;;;;;;;;;;;;17.67;41.56;102423.88;4999083;28;1009;-46
2023/12/18 06:54:54;;;;;;;;;;;;;;;17.88;41.58;102419.66;4998509;28;1418;-49
2023/12/18 06:57:19;;;;;;;;;;;;;;;18.70;39.56;102423.25;4988755;28;1127;-49
2023/12/18 06:59:45;;;;;;;;;;;;;;;17.44;42.18;102423.66;4997208;28;1057;-45
2023/12/18 07:02:11;;;;;;;;;;;;;;;17.54;42.28;102423.06;4988622;28;1246;-48
2023/12/18 07:04:36;;;;;;;;;;;;;;;17.72;41.58;102429.53;4984452;28;993;-44
2023/12/18 07:07:01;;;;;;;;;;;;;;;17.05;43.13;102411.44;4992128;28;1155;-49
2023/12/18 07:09:27;;;;;;;;;;;;;;;18.00;41.16;102408.69;4994733;28;1902;-46
2023/12/18 07:11:53;;;;;;;;;;;;;;;17.36;42.53;102424.03;4991118;28;1080;-48
2023/12/18 07:14:18;;;;;;;;;;;;;;;17.11;42.92;102429.75;4985598;28;1219;-44
2023/12/18 07:16:44;;;;;;;;;;;;;;;18.22;40.56;102406.09;4997704;28;1151;-46
2023/12/18 07:19:09;;;;;;;;;;;;;;;17.58;42.22;102407.75;4998860;28;1088;-47
2023/12/18 07:21:35;;;;;;;;;;;;;;;19.07;38.80;102409.00;4999240;28;1067;-50
2023/12/18 07:24:00;;;;;;;;;;;;;;;18.12;40.69;102396.56;4994868;28;1059;-48
2023/12/18 07:26:26;;;;;;;;;;;;;;;17.43;42.27;102405.50;4982658;28;1168;-47
2023/12/18 07:28:51;;;;;;;;;;;;;;;18.53;39.88;102398.44;4979279;28;1112;-47
2023/12/18 07:31:18;;;;;;;;;;;;;;;17.39;42.36;102398.81;4979327;28;2001;-47
2023/12/18 07:33:43;;;;;;;;;;;;;;;18.27;40.60;102401.53;4978692;28;1061;-48
2023/12/18 07:36:09;;;;;;;;;;;;;;;17.92;41.00;102396.13;4979159;28;1139;-49
2023/12/18 07:38:35;;;;;;;;;;;;;;;17.29;42.50;102412.31;4983537;28;1121;-44
2023/12/18 07:41:02;;;;;;;;;;;;;;;18.44;40.42;102409.84;5003229;28;1063;-46
2023/12/18 07:43:27;;;;;;;;;;;;;;;17.66;41.69;102414.81;4978494;28;1206;-50
2023/12/18 07:45:53;;;;;;;;;;;;;;;17.13;42.53;102410.28;4979566;28;1103;-47
2023/12/18 07:48:21;;;;;;;;;;;;;;;18.41;40.20;102402.06;4979366;28;1109;-46
2023/12/18 07:50:47;;;;;;;;;;;;;;;17.40;42.24;102408.75;4978898;28;1906;-50
2023/12/18 07:53:13;;;;;;;;;;;;;;;18.26;40.54;102410.03;4979154;28;1005;-49
2023/12/18 07:55:39;;;;;;;;;;;;;;;18.36;40.32;102409.41;4989684;28;1045;-49
2023/12/18 07:58:04;;;;;;;;;;;;;;;17.37;42.07;102395.44;4985247;28;1268;-47
2023/12/18 08:00:30;;;;;;;;;;;;;;;18.84;39.29;102407.25;4998812;28;1076;-47
2023/12/18 08:02:55;;;;;;;;;;;;;;;17.92;41.20;102409.88;4980587;28;1138;-47
2023/12/18 08:05:21;;;;;;;;;;;;;;;17.37;42.32;102411.94;4989621;28;1080;-42
2023/12/18 08:07:46;;;;;;;;;;;;;;;18.23;40.52;102405.00;4979674;28;1060;-45
2023/12/18 08:10:12;;;;;;;;;;;;;;;17.26;42.39;102405.41;4989931;28;1898;-45
2023/12/18 08:12:38;;;;;;;;;;;;;;;18.59;39.88;102402.94;4985117;28;1148;-46
2023/12/18 08:15:04;;;;;;;;;;;;;;;18.05;41.02;102395.84;4987206;28;1205;-45
2023/12/18 08:17:36;;;;;;;;;;;;;;;17.55;42.05;102397.22;4996599;28;1014;-40
2023/12/18 08:20:01;;;;;;;;;;;;;;;18.88;39.20;102383.63;4997250;28;1127;-42
2023/12/18 08:22:27;;;;;;;;;;;;;;;17.67;41.89;102394.50;4994682;28;1215;-43
2023/12/18 08:24:52;;;;;;;;;;;;;;;17.42;42.45;102392.81;4990262;28;1060;-44
2023/12/18 08:27:18;;;;;;;;;;;;;;;17.94;41.11;102396.72;4996711;28;1065;-45
2023/12/18 08:29:43;;;;;;;;;;;;;;;17.14;42.94;102403.69;4976836;28;1918;-48
2023/12/18 08:32:09;;;;;;;;;;;;;;;16.80;43.70;102397.88;4996264;28;1115;-45
2023/12/18 08:34:34;;;;;;;;;;;;;;;16.66;43.81;102410.97;4989296;28;1087;-46
2023/12/18 08:37:00;;;;;;;;;;;;;;;16.49;43.86;102397.91;5001578;28;1579;-42
2023/12/18 08:39:25;;;;;;;;;;;;;;;16.39;43.84;102398.47;4978218;28;1267;-44
2023/12/18 08:41:51;;;;;;;;;;;;;;;16.22;44.04;102390.03;4984239;28;1365;-47
2023/12/18 08:44:16;;;;;;;;;;;;;;;17.82;42.03;102396.72;4980735;28;1307;-46
2023/12/18 08:50:09;;;;;;;;;;;;;;;16.28;44.88;102381.94;4976927;28;1910;-46
2023/12/18 08:52:35;;;;;;;;;;;;;;;16.15;44.53;102385.72;4970644;28;1420;-48
2023/12/18 08:55:01;;;;;;;;;;;;;;;16.03;44.54;102374.66;4977397;28;1110;-42
2023/12/18 08:57:27;;;;;;;;;;;;;;;16.14;44.59;102362.91;4979922;28;1071;-43
2023/12/18 08:59:54;;;;;;;;;;;;;;;16.19;44.55;102356.75;4977780;28;1053;-43
2023/12/18 09:02:19;;;;;;;;;;;;;;;15.83;45.19;102351.06;4977460;28;1205;-46
2023/12/18 09:04:45;;;;;;;;;;;;;;;17.10;44.47;102356.63;4977319;28;1075;-47
2023/12/18 09:07:10;;;;;;;;;;;;;;;16.72;45.23;102349.63;4993070;28;1152;-47
2023/12/18 09:09:39;;;;;;;;;;;;;;;17.73;43.17;102343.16;4977571;28;1981;-43
2023/12/18 09:12:05;;;;;;;;;;;;;;;18.47;41.39;102336.91;4977391;28;1117;-43
2023/12/18 09:14:31;;;;;;;;;;;;;;;17.03;44.27;102336.66;4977481;28;1064;-45
2023/12/18 09:16:56;;;;;;;;;;;;;;;16.62;44.99;102332.88;4988149;28;984;-43
2023/12/18 09:19:22;;;;;;;;;;;;;;;17.53;43.11;102314.13;4979795;28;1045;-43
2023/12/18 09:21:47;;;;;;;;;;;;;;;16.64;44.82;102306.03;4977342;28;966;-42
2023/12/18 09:24:13;;;;;;;;;;;;;;;18.33;41.40;102306.09;4980789;28;1028;-40
2023/12/18 09:26:38;;;;;;;;;;;;;;;17.40;42.96;102293.25;4995780;28;1123;-41
2023/12/18 09:29:04;;;;;;;;;;;;;;;17.04;44.22;102300.69;4994725;28;1337;-46
2023/12/18 09:31:29;;;;;;;;;;;;;;;18.28;41.35;102297.72;4995363;28;1985;-43
2023/12/18 09:33:55;;;;;;;;;;;;;;;17.14;43.50;102293.75;4988626;28;908;-46
2023/12/18 09:36:21;;;;;;;;;;;;;;;17.59;42.96;102298.59;4976398;28;1072;-44
2023/12/18 09:38:47;;;;;;;;;;;;;;;17.39;42.94;102291.56;4995352;28;1120;-44
2023/12/18 09:41:19;;;;;;;;;;;;;;;16.81;44.29;102284.19;4983847;28;1047;-46
2023/12/18 09:43:45;;;;;;;;;;;;;;;17.89;41.92;102281.00;4969723;28;1207;-45
2023/12/18 09:46:11;;;;;;;;;;;;;;;16.88;44.00;102287.63;4990350;28;1264;-45
2023/12/18 09:48:36;;;;;;;;;;;;;;;17.93;42.08;102283.03;4996642;28;1079;-45
2023/12/18 09:54:27;;;;;;;;;;;;;;;17.71;42.42;102274.63;4983379;28;1148;-46
2023/12/18 09:56:52;;;;;;;;;;;;;;;17.99;41.44;102277.63;4995970;28;904;-45
2023/12/18 09:59:18;;;;;;;;;;;;;;;17.17;43.04;102277.63;4994865;28;1064;-45
2023/12/18 10:01:44;;;;;;;;;;;;;;;17.33;43.32;102276.03;4988735;28;1268;-49
2023/12/18 10:04:10;;;;;;;;;;;;;;;17.26;43.20;102278.06;4993289;28;1226;-47
2023/12/18 10:06:35;;;;;;;;;;;;;;;16.78;44.01;102280.00;4988234;28;1088;-45
2023/12/18 10:09:03;;;;;;;;;;;;;;;18.19;41.13;102268.91;4984975;28;1097;-45
2023/12/18 10:11:29;;;;;;;;;;;;;;;17.03;43.56;102271.53;4995937;28;1977;-47
2023/12/18 10:13:55;;;;;;;;;;;;;;;17.72;42.30;102275.44;4983219;28;1083;-44
2023/12/18 10:16:20;;;;;;;;;;;;;;;17.74;42.19;102267.78;4995314;28;1012;-44
2023/12/18 10:18:46;;;;;;;;;;;;;;;16.99;43.66;102259.34;4982254;28;1048;-47
2023/12/18 10:21:12;;;;;;;;;;;;;;;18.71;40.15;102263.19;4994280;28;901;-44
2023/12/18 10:23:38;;;;;;;;;;;;;;;17.41;42.54;102259.16;4980804;28;1226;-44
2023/12/18 10:26:04;;;;;;;;;;;;;;;16.92;43.70;102267.72;5000071;28;1148;-46
2023/12/18 10:28:29;;;;;;;;;;;;;;;18.04;41.41;102252.97;4981374;28;1191;-48
2023/12/18 10:30:56;;;;;;;;;;;;;;;17.11;43.33;102251.09;4985644;28;1905;-46
2023/12/18 10:33:21;;;;;;;;;;;;;;;16.70;43.86;102252.88;4988254;28;1163;-47
2023/12/18 10:35:48;;;;;;;;;;;;;;;17.50;42.74;102240.38;4977244;28;1018;-45
2023/12/18 10:38:19;;;;;;;;;;;;;;;17.38;42.62;102237.66;4979162;28;1096;-45
2023/12/18 10:40:44;;;;;;;;;;;;;;;16.72;44.07;102246.06;4986042;28;1083;-47
2023/12/18 10:43:13;;;;;;;;;;;;;;;16.51;44.16;102233.75;4977537;28;1077;-49
2023/12/18 10:45:39;;;;;;;;;;;;;;;16.29;44.36;102228.00;4993423;28;837;-46
2023/12/18 10:48:04;;;;;;;;;;;;;;;17.64;42.27;102229.06;4982942;28;1199;-48
2023/12/18 10:50:30;;;;;;;;;;;;;;;17.14;43.13;102220.38;4985663;28;1977;-46
2023/12/18 10:52:56;;;;;;;;;;;;;;;16.51;44.54;102227.41;4978990;28;1116;-47
2023/12/18 10:55:22;;;;;;;;;;;;;;;17.81;41.88;102207.97;4995645;28;1068;-47
2023/12/18 10:57:48;;;;;;;;;;;;;;;16.83;43.84;102203.19;4982020;28;1194;-50
2023/12/18 11:00:15;;;;;;;;;;;;;;;16.47;44.40;102215.25;4985445;28;1020;-48
2023/12/18 11:02:41;;;;;;;;;;;;;;;16.47;44.52;102207.84;4997347;28;1146;-49
2023/12/18 11:05:06;;;;;;;;;;;;;;;17.79;41.88;102199.09;4999221;28;1065;-50
2023/12/18 11:07:32;;;;;;;;;;;;;;;16.72;44.07;102196.63;4985067;28;1206;-46
2023/12/18 11:09:58;;;;;;;;;;;;;;;16.36;44.63;102195.78;4994064;28;1972;-47
2023/12/18 11:12:23;;;;;;;;;;;;;;;17.05;43.55;102189.66;4985008;28;1156;-46
2023/12/18 11:15:05;;;;;;;;;;;;;;;17.45;42.54;102186.09;4997878;28;1134;-43
2023/12/18 11:17:50;;;;;;;;;;;;;;;16.53;44.60;102184.91;4990094;28;1176;-48
2023/12/18 11:20:18;;;;;;;;;;;;;;;16.80;44.31;102178.94;4986300;28;1039;-49
2023/12/18 11:22:44;;;;;;;;;;;;;;;17.30;42.87;102180.28;4968240;28;1136;-45
2023/12/18 11:25:09;;;;;;;;;;;;;;;16.53;44.34;102176.69;4992439;28;1099;-49
2023/12/18 11:27:35;;;;;;;;;;;;;;;16.34;44.83;102175.13;4994416;28;1146;-49
2023/12/18 11:30:00;;;;;;;;;;;;;;;17.84;41.73;102162.56;4978758;28;1903;-46
2023/12/18 11:32:45;;;;;;;;;;;;;;;16.71;44.13;102156.50;4988111;28;996;-47
2023/12/18 11:35:11;;;;;;;;;;;;;;;16.39;44.85;102169.75;4978504;28;1041;-47
2023/12/18 11:37:51;;;;;;;;;;;;;;;17.99;41.66;102173.88;4992960;28;1152;-50
2023/12/18 11:40:43;;;;;;;;;;;;;;;16.90;43.86;102176.44;4984658;28;1097;-43
2023/12/18 11:43:10;;;;;;;;;;;;;;;16.50;44.53;102157.13;4990632;28;1097;-47
2023/12/18 11:45:44;;;;;;;;;;;;;;;16.22;44.77;102158.66;4980678;28;1221;-49
2023/12/18 11:48:14;;;;;;;;;;;;;;;16.45;44.61;102151.50;4991347;28;1025;-43
2023/12/18 11:50:40;;;;;;;;;;;;;;;17.12;43.22;102159.31;4986617;28;1906;-43
2023/12/18 11:53:05;;;;;;;;;;;;;;;16.37;45.09;102152.72;4985168;28;1211;-46
2023/12/18 11:55:37;;;;;;;;;;;;;;;18.03;41.60;102144.78;4998107;28;1033;-45
2023/12/18 11:58:03;;;;;;;;;;;;;;;16.94;43.81;102138.31;4987724;28;1102;-44
2023/12/18 12:00:31;;;;;;;;;;;;;;;16.51;44.66;102129.41;4998253;28;1083;-43
2023/12/18 12:02:57;;;;;;;;;;;;;;;17.82;42.04;102118.81;4985363;28;1160;-42
2023/12/18 12:05:23;;;;;;;;;;;;;;;17.15;43.36;102119.50;4989482;28;1215;-46
2023/12/18 12:07:49;;;;;;;;;;;;;;;16.56;44.75;102112.22;4993894;28;1132;-45
2023/12/18 12:10:14;;;;;;;;;;;;;;;18.07;41.59;102112.91;4988485;28;1981;-45
2023/12/18 12:12:40;;;;;;;;;;;;;;;16.88;43.90;102115.41;4984618;28;1053;-50
2023/12/18 12:15:05;;;;;;;;;;;;;;;18.27;41.06;102114.31;4992284;28;1084;-50
2023/12/18 12:17:31;;;;;;;;;;;;;;;17.86;41.74;102108.16;4978712;28;801;-52
2023/12/18 12:19:58;;;;;;;;;;;;;;;17.06;43.56;102113.56;4982811;28;1136;-53
2023/12/18 12:22:23;;;;;;;;;;;;;;;17.03;43.95;102112.16;4997154;28;934;-52
2023/12/18 12:24:48;;;;;;;;;;;;;;;17.50;42.69;102111.13;4997708;28;1065;-53
2023/12/18 12:27:14;;;;;;;;;;;;;;;16.84;44.15;102105.13;4988511;28;1360;-50
2023/12/18 12:29:40;;;;;;;;;;;;;;;16.52;44.48;102103.63;4979824;28;1977;-50
2023/12/18 12:32:05;;;;;;;;;;;;;;;16.31;44.69;102098.75;4997903;28;1383;-56
2023/12/18 12:34:31;;;;;;;;;;;;;;;17.44;43.17;102098.34;4980372;28;1266;-51
2023/12/18 12:37:00;;;;;;;;;;;;;;;16.60;44.85;102105.16;4980922;28;1404;-48
2023/12/18 12:39:26;;;;;;;;;;;;;;;17.63;42.92;102093.47;4989081;28;1263;-54
2023/12/18 12:41:51;;;;;;;;;;;;;;;17.33;43.05;102099.25;4997480;28;1068;-50
2023/12/18 12:44:17;;;;;;;;;;;;;;;16.54;44.72;102095.16;4996126;28;1073;-52
2023/12/18 12:46:42;;;;;;;;;;;;;;;16.37;45.10;102084.09;4984427;28;1253;-51
2023/12/18 12:49:11;;;;;;;;;;;;;;;17.78;42.50;102087.38;4996420;28;1365;-53